Time;durP1;ratioP1;P1;durP2;ratioP2;P2;SDS_P1;SDS_P2;PMS_P1;PMS_P2;Temp;Humidity;BMP_temperature;BMP_pressure;BME280_temperature;BME280_humidity;BME280_pressure;Samples;Min_cycle;Max_cycle;Signal;HPM_P1;HPM_P2
2022/03/22 00:01:10;;;;;;;112.72;52.13;;;;;;;2.82;45.17;102386.47;5039000;28;20017;-74
2022/03/22 00:03:37;;;;;;;116.40;51.95;;;;;;;2.78;45.09;102393.22;5022892;28;20425;-74
2022/03/22 00:06:10;;;;;;;110.20;49.40;;;;;;;2.74;44.87;102392.34;5056758;28;20075;-75
2022/03/22 00:08:36;;;;;;;113.55;50.10;;;;;;;2.70;44.98;102386.66;5039348;28;20033;-75
2022/03/22 00:11:02;;;;;;;110.45;49.78;;;;;;;2.67;45.03;102390.19;5056778;28;20020;-74
2022/03/22 00:13:28;;;;;;;111.88;50.17;;;;;;;2.66;45.20;102391.41;5038737;28;20035;-73
2022/03/22 00:16:03;;;;;;;115.70;50.10;;;;;;;2.68;45.69;102382.59;5056740;28;20051;-74
2022/03/22 00:18:34;;;;;;;105.18;45.30;;;;;;;2.69;45.48;102389.84;5056506;28;20049;-73
2022/03/22 00:21:01;;;;;;;105.95;47.63;;;;;;;2.75;45.15;102400.41;5039342;28;20025;-73
2022/03/22 00:23:29;;;;;;;113.40;48.03;;;;;;;2.76;45.48;102389.97;5038752;28;20024;-73
2022/03/22 00:25:55;;;;;;;123.85;50.30;;;;;;;2.80;45.15;102393.66;5056615;28;20048;-73
2022/03/22 00:28:22;;;;;;;108.03;47.55;;;;;;;2.82;45.94;102386.47;5054488;28;20037;-73
2022/03/22 00:30:47;;;;;;;105.35;46.92;;;;;;;2.85;45.48;102393.34;5056234;28;20024;-74
2022/03/22 00:33:13;;;;;;;112.85;46.78;;;;;;;2.86;45.54;102386.53;5038334;28;20021;-75
2022/03/22 00:35:53;;;;;;;107.30;46.70;;;;;;;2.86;45.63;102383.72;5056409;28;20021;-72
2022/03/22 00:38:20;;;;;;;111.07;49.60;;;;;;;2.85;45.46;102391.34;5056293;28;20025;-73
2022/03/22 00:40:47;;;;;;;116.30;50.92;;;;;;;2.81;45.25;102379.19;5054951;28;20021;-74
2022/03/22 00:43:15;;;;;;;127.95;50.70;;;;;;;2.81;45.25;102389.66;5020563;28;20021;-73
2022/03/22 00:45:41;;;;;;;106.45;49.50;;;;;;;2.80;45.94;102394.47;5037032;28;20029;-74
2022/03/22 00:48:12;;;;;;;125.88;51.42;;;;;;;2.72;46.10;102377.81;5037159;28;20035;-73
2022/03/22 00:50:47;;;;;;;114.70;49.20;;;;;;;2.70;46.21;102378.22;5041916;28;20033;-74
2022/03/22 00:53:27;;;;;;;106.78;50.20;;;;;;;2.69;45.91;102370.97;5036653;28;20036;-73
2022/03/22 00:55:56;;;;;;;114.27;51.37;;;;;;;2.70;46.29;102381.03;5037289;28;20093;-74
2022/03/22 00:58:22;;;;;;;127.60;50.42;;;;;;;2.68;46.24;102374.16;5055512;28;20045;-74
2022/03/22 01:00:48;;;;;;;106.35;48.53;;;;;;;2.69;46.44;102381.41;5020987;28;20040;-74
2022/03/22 01:03:13;;;;;;;116.20;47.78;;;;;;;2.66;46.45;102379.34;5004518;28;20043;-74
2022/03/22 01:05:54;;;;;;;116.57;49.67;;;;;;;2.65;46.89;102381.34;5003573;28;20123;-74
2022/03/22 01:08:40;;;;;;;120.93;50.00;;;;;;;2.67;46.79;102376.13;5055826;28;20032;-73
2022/03/22 01:11:06;;;;;;;117.28;51.85;;;;;;;2.61;47.28;102374.84;5037710;28;20031;-74
2022/03/22 01:13:33;;;;;;;118.65;51.63;;;;;;;2.54;47.39;102375.50;5020938;28;20024;-73
2022/03/22 01:15:59;;;;;;;102.32;47.83;;;;;;;2.48;47.08;102374.19;5037488;28;20025;-75
2022/03/22 01:18:25;;;;;;;104.68;47.58;;;;;;;2.41;46.68;102370.44;5037414;28;20428;-73
2022/03/22 01:20:51;;;;;;;110.63;47.97;;;;;;;2.37;46.95;102363.94;5037252;28;20115;-73
2022/03/22 01:23:19;;;;;;;113.15;49.97;;;;;;;2.40;46.75;102383.69;5004439;28;20067;-73
2022/03/22 01:25:59;;;;;;;106.32;49.65;;;;;;;2.39;47.08;102386.84;5037826;28;20025;-74
2022/03/22 01:28:26;;;;;;;107.70;48.33;;;;;;;2.32;47.15;102383.91;5055153;28;20029;-74
2022/03/22 01:30:55;;;;;;;105.53;49.60;;;;;;;2.26;47.04;102374.97;5052534;28;20036;-74
2022/03/22 01:33:21;;;;;;;115.13;47.90;;;;;;;2.18;47.08;102379.63;5055189;28;20079;-75
2022/03/22 01:35:46;;;;;;;105.60;46.58;;;;;;;2.11;47.30;102361.81;5054762;28;20069;-73
2022/03/22 01:38:13;;;;;;;107.70;46.15;;;;;;;2.13;46.97;102379.09;5037231;28;20118;-73
2022/03/22 01:40:40;;;;;;;105.78;45.35;;;;;;;2.13;47.56;102379.09;5037261;28;20115;-72
2022/03/22 01:43:06;;;;;;;100.88;43.17;;;;;;;2.11;47.70;102375.88;5020534;28;20044;-73
2022/03/22 01:45:33;;;;;;;104.75;44.90;;;;;;;2.05;47.03;102363.28;5054814;28;20033;-74
2022/03/22 01:48:01;;;;;;;94.68;41.85;;;;;;;2.07;47.42;102358.91;5020284;28;20044;-73
2022/03/22 01:50:29;;;;;;;93.95;40.28;;;;;;;2.04;47.40;102364.47;5020402;28;20025;-73
2022/03/22 01:53:03;;;;;;;89.28;40.45;;;;;;;2.00;47.97;102367.22;5054705;28;20103;-74
2022/03/22 01:55:31;;;;;;;95.30;39.15;;;;;;;1.96;47.46;102357.09;5057390;28;20017;-73
2022/03/22 01:57:58;;;;;;;86.93;39.17;;;;;;;1.94;47.73;102357.44;5020083;28;20045;-73
2022/03/22 02:00:25;;;;;;;81.50;36.03;;;;;;;1.93;47.72;102347.38;5020210;28;20026;-73
2022/03/22 02:05:52;;;;;;;85.28;37.70;;;;;;;1.93;48.00;102350.19;5035741;28;20076;-73
2022/03/22 02:08:19;;;;;;;79.55;35.40;;;;;;;1.92;47.64;102353.41;5033925;28;20033;-72
2022/03/22 02:10:45;;;;;;;88.18;38.25;;;;;;;1.90;47.92;102350.13;5017486;28;20095;-73
2022/03/22 02:13:12;;;;;;;92.45;39.08;;;;;;;1.89;48.40;102342.88;5033165;28;20038;-74
2022/03/22 02:15:38;;;;;;;82.53;38.38;;;;;;;1.89;48.19;102342.88;5032991;28;20386;-73
2022/03/22 02:18:04;;;;;;;88.63;38.88;;;;;;;1.88;47.83;102336.44;5034492;28;20030;-73
2022/03/22 02:20:40;;;;;;;88.50;38.67;;;;;;;1.86;48.22;102338.81;5016572;28;20108;-74
2022/03/22 02:23:21;;;;;;;83.85;35.35;;;;;;;1.84;48.80;102343.16;5000351;28;20371;-73
2022/03/22 02:26:02;;;;;;;77.88;33.40;;;;;;;1.87;48.48;102334.03;5016436;28;20045;-74
2022/03/22 02:28:27;;;;;;;66.88;32.03;;;;;;;1.87;48.13;102329.22;5034376;28;20032;-74
2022/03/22 02:30:54;;;;;;;73.28;33.20;;;;;;;1.85;48.80;102330.75;5034244;28;20009;-74
2022/03/22 02:33:20;;;;;;;72.40;33.75;;;;;;;1.87;48.46;102331.22;5033959;28;20493;-73
2022/03/22 02:35:47;;;;;;;85.25;35.72;;;;;;;1.88;49.06;102332.81;5032715;28;20168;-72
2022/03/22 02:38:15;;;;;;;84.18;37.22;;;;;;;1.87;49.12;102331.22;5016107;28;20037;-74
2022/03/22 02:40:41;;;;;;;88.88;38.35;;;;;;;1.83;48.93;102335.91;5032459;28;20105;-74
2022/03/22 02:43:08;;;;;;;93.65;40.15;;;;;;;1.82;49.16;102343.56;5032758;28;20030;-73
2022/03/22 02:45:35;;;;;;;98.45;39.80;;;;;;;1.73;49.66;102326.09;5034460;28;20036;-73
2022/03/22 02:48:04;;;;;;;87.82;37.33;;;;;;;1.74;49.20;102339.78;5034386;28;20463;-72
2022/03/22 02:50:30;;;;;;;81.00;35.13;;;;;;;1.71;49.21;102343.31;5016258;28;20076;-72
2022/03/22 02:52:56;;;;;;;74.28;34.80;;;;;;;1.61;49.44;102337.47;5032238;28;20438;-73
2022/03/22 02:55:23;;;;;;;75.55;35.67;;;;;;;1.63;50.06;102343.50;5033749;28;20406;-72
2022/03/22 02:57:53;;;;;;;76.30;35.92;;;;;;;1.58;49.67;102350.25;5048384;28;20486;-73
2022/03/22 03:00:20;;;;;;;71.93;33.45;;;;;;;1.52;50.11;102348.91;5037071;28;20086;-73
2022/03/22 03:02:51;;;;;;;64.70;32.95;;;;;;;1.52;50.37;102362.97;5055243;28;20017;-72
2022/03/22 03:05:19;;;;;;;71.80;33.67;;;;;;;1.49;50.18;102355.25;5019647;28;20040;-74
2022/03/22 03:07:45;;;;;;;80.97;35.17;;;;;;;1.45;50.09;102365.59;5035823;28;20028;-73
2022/03/22 03:10:15;;;;;;;76.93;33.88;;;;;;;1.26;50.33;102343.09;5053528;28;20086;-74
2022/03/22 03:13:01;;;;;;;69.15;33.63;;;;;;;1.41;51.19;102366.69;5035538;28;20025;-72
2022/03/22 03:15:28;;;;;;;69.32;32.55;;;;;;;1.37;50.47;102366.63;5018745;28;20032;-74
2022/03/22 03:17:53;;;;;;;67.32;34.28;;;;;;;1.37;50.89;102355.38;5018814;28;20111;-74
2022/03/22 03:20:18;;;;;;;70.80;33.00;;;;;;;1.33;50.79;102362.91;5053293;28;20112;-74
2022/03/22 03:22:47;;;;;;;64.78;30.55;;;;;;;1.34;50.95;102364.53;5035722;28;20024;-73
2022/03/22 03:25:13;;;;;;;61.17;29.65;;;;;;;1.34;50.83;102364.53;5035647;28;20029;-73
2022/03/22 03:27:39;;;;;;;70.20;30.83;;;;;;;1.33;50.65;102360.13;5034973;28;20032;-72
2022/03/22 03:30:05;;;;;;;67.97;31.60;;;;;;;1.29;50.47;102351.59;5002252;28;20021;-72
2022/03/22 03:32:33;;;;;;;57.13;29.85;;;;;;;1.34;50.91;102370.13;5035089;28;20104;-73
2022/03/22 03:34:58;;;;;;;69.32;30.92;;;;;;;1.34;50.77;102374.94;5019192;28;20036;-74
2022/03/22 03:37:28;;;;;;;67.10;30.50;;;;;;;1.33;51.03;102362.09;5035345;28;20047;-74
2022/03/22 03:39:56;;;;;;;66.65;32.00;;;;;;;1.20;50.89;102350.97;5019677;28;20021;-74
2022/03/22 03:42:23;;;;;;;71.03;31.30;;;;;;;1.35;50.75;102373.75;5052973;28;20382;-74
2022/03/22 03:47:35;;;;;;;75.80;34.42;;;;;;;1.34;50.99;102372.94;5039502;28;20043;-74
2022/03/22 03:50:05;;;;;;;77.30;34.35;;;;;;;1.30;51.66;102370.06;5053934;28;20025;-72
2022/03/22 03:52:39;;;;;;;68.18;31.80;;;;;;;1.26;51.91;102371.97;5003027;28;20029;-72
2022/03/22 03:55:07;;;;;;;76.28;33.85;;;;;;;1.23;51.85;102380.31;5053464;28;20052;-72
2022/03/22 03:57:35;;;;;;;77.80;33.78;;;;;;;1.21;52.01;102375.06;5053076;28;20045;-73
2022/03/22 04:00:00;;;;;;;72.40;35.05;;;;;;;1.18;51.77;102378.59;5035273;28;20497;-74
2022/03/22 04:02:27;;;;;;;74.25;34.10;;;;;;;1.12;51.66;102373.63;5035082;28;20036;-73
2022/03/22 04:04:53;;;;;;;72.53;33.90;;;;;;;1.09;52.24;102371.53;5034908;28;20102;-74
2022/03/22 04:07:22;;;;;;;65.90;32.33;;;;;;;1.09;52.21;102372.34;5033752;28;20099;-74
2022/03/22 04:09:48;;;;;;;90.10;35.90;;;;;;;1.05;52.02;102376.25;5018412;28;20112;-73
2022/03/22 04:12:19;;;;;;;69.00;33.70;;;;;;;1.04;52.62;102377.41;5018267;28;20113;-73
2022/03/22 04:14:48;;;;;;;89.25;37.85;;;;;;;0.99;52.10;102372.91;5002579;28;20036;-74
2022/03/22 04:17:14;;;;;;;77.20;35.03;;;;;;;0.96;52.57;102372.81;5052886;28;20021;-73
2022/03/22 04:19:40;;;;;;;80.53;34.40;;;;;;;0.95;52.36;102380.41;5018177;28;20433;-74
2022/03/22 04:22:08;;;;;;;76.45;34.47;;;;;;;0.93;52.88;102385.59;5016016;28;20429;-73
2022/03/22 04:24:38;;;;;;;74.47;34.88;;;;;;;0.92;52.88;102389.56;5018260;28;20029;-73
2022/03/22 04:32:44;;;;;;;88.63;35.90;;;;;;;0.86;52.73;102385.41;5052453;28;20064;-74
2022/03/22 04:35:20;;;;;;;75.43;35.42;;;;;;;0.86;53.33;102382.59;5019382;28;20025;-74
2022/03/22 04:37:49;;;;;;;77.28;34.85;;;;;;;0.82;53.03;102382.50;5017921;28;20025;-74
2022/03/22 04:40:15;;;;;;;86.20;36.75;;;;;;;0.81;53.78;102380.88;5055502;28;20029;-73
2022/03/22 04:42:55;;;;;;;80.07;36.10;;;;;;;0.80;53.64;102384.03;5021777;28;20029;-74
2022/03/22 04:45:22;;;;;;;78.05;36.22;;;;;;;0.79;53.81;102393.63;5055829;28;20027;-75
2022/03/22 04:47:50;;;;;;;78.30;37.00;;;;;;;0.78;53.74;102400.41;5038366;28;20053;-73
2022/03/22 04:50:17;;;;;;;87.60;38.20;;;;;;;0.77;53.60;102402.41;5038025;28;20044;-74
2022/03/22 04:58:14;;;;;;;101.15;45.40;;;;;;;0.72;54.42;102397.06;5055547;28;20117;-73
2022/03/22 05:00:39;;;;;;;95.18;41.67;;;;;;;0.76;54.31;102406.38;5055917;28;20025;-74
2022/03/22 05:03:09;;;;;;;93.40;43.10;;;;;;;0.77;54.01;102408.00;5037538;28;20032;-73
2022/03/22 05:08:24;;;;;;;94.38;39.92;;;;;;;0.80;54.58;102403.66;5055711;28;20036;-74
2022/03/22 05:10:51;;;;;;;91.57;42.65;;;;;;;0.79;54.46;102404.84;5037834;28;20044;-74
2022/03/22 05:13:19;;;;;;;98.60;44.67;;;;;;;0.79;53.95;102402.84;5053196;28;20033;-73
2022/03/22 05:15:47;;;;;;;92.60;41.10;;;;;;;0.79;53.71;102396.44;5037744;28;20474;-74
2022/03/22 05:18:15;;;;;;;100.03;42.55;;;;;;;0.83;54.12;102400.97;5054541;28;20083;-74
2022/03/22 05:20:43;;;;;;;96.68;44.25;;;;;;;0.83;53.75;102406.56;5020814;28;20029;-74
2022/03/22 05:23:12;;;;;;;96.80;43.92;;;;;;;0.89;53.45;102406.31;5020776;28;20028;-74
2022/03/22 05:25:39;;;;;;;97.40;44.67;;;;;;;0.91;53.63;102404.75;5037621;28;20032;-73
2022/03/22 05:28:04;;;;;;;98.45;42.20;;;;;;;0.96;54.06;102412.09;5036856;28;20040;-73
2022/03/22 05:30:36;;;;;;;102.63;40.63;;;;;;;1.03;53.53;102398.25;5055055;28;20025;-73
2022/03/22 05:33:02;;;;;;;89.47;40.30;;;;;;;1.03;53.47;102396.25;5021200;28;20025;-73
2022/03/22 05:35:29;;;;;;;82.50;37.42;;;;;;;1.11;52.97;102397.25;5037440;28;20021;-74
2022/03/22 05:37:55;;;;;;;75.55;35.72;;;;;;;1.17;52.95;102401.41;5019487;28;20128;-72
2022/03/22 05:40:23;;;;;;;78.13;37.35;;;;;;;1.26;53.45;102400.03;5037766;28;20105;-74
2022/03/22 05:42:49;;;;;;;88.35;36.88;;;;;;;1.16;52.67;102378.16;5037093;28;20021;-73
2022/03/22 05:45:15;;;;;;;81.72;36.58;;;;;;;1.39;52.34;102400.72;5020796;28;20021;-75
2022/03/22 05:47:43;;;;;;;90.00;36.67;;;;;;;1.50;52.42;102398.19;5020222;28;20474;-74
2022/03/22 05:50:09;;;;;;;73.10;36.38;;;;;;;1.58;52.39;102405.63;5054188;28;20028;-75
2022/03/22 05:52:49;;;;;;;77.40;33.58;;;;;;;1.63;51.58;102403.31;5003874;28;20037;-70
2022/03/22 05:55:16;;;;;;;83.03;34.65;;;;;;;1.77;51.71;102410.44;5054586;28;20028;-70
2022/03/22 05:57:43;;;;;;;72.88;34.17;;;;;;;1.78;51.84;102395.22;5016143;28;20137;-69
2022/03/22 06:00:10;;;;;;;75.13;35.55;;;;;;;1.93;51.55;102403.56;5033183;28;20051;-70
2022/03/22 06:02:40;;;;;;;69.78;32.17;;;;;;;2.01;51.41;102408.19;5017089;28;20087;-70
2022/03/22 06:05:08;;;;;;;78.75;32.92;;;;;;;2.05;51.36;102397.81;5033691;28;20029;-71
2022/03/22 06:07:36;;;;;;;71.15;32.47;;;;;;;2.25;51.01;102407.06;5035298;28;20033;-69
2022/03/22 06:10:03;;;;;;;68.90;32.47;;;;;;;2.33;50.53;102408.03;5016835;28;20478;-70
2022/03/22 06:12:39;;;;;;;68.00;30.52;;;;;;;2.48;50.35;102405.13;5034439;28;20096;-71
2022/03/22 06:15:22;;;;;;;71.50;31.65;;;;;;;2.68;49.84;102403.09;5036147;28;20057;-73
2022/03/22 06:17:56;;;;;;;71.45;33.60;;;;;;;2.95;50.07;102410.44;5026471;28;20040;-72
2022/03/22 06:20:26;;;;;;;68.95;33.88;;;;;;;3.91;48.35;102403.47;5033899;28;20401;-70
2022/03/22 06:22:54;;;;;;;72.07;34.92;;;;;;;6.00;45.88;102392.19;5034440;28;20128;-71
2022/03/22 06:25:20;;;;;;;69.22;33.03;;;;;;;8.98;40.86;102398.38;5035972;28;20021;-70
2022/03/22 06:27:48;;;;;;;67.68;32.05;;;;;;;11.32;36.54;102389.09;5034054;28;20037;-72
2022/03/22 06:30:22;;;;;;;77.38;35.88;;;;;;;13.40;32.73;102379.00;5017628;28;20022;-70
2022/03/22 06:32:54;;;;;;;77.65;35.17;;;;;;;15.47;28.64;102368.69;5033086;28;20091;-71
2022/03/22 06:35:24;;;;;;;94.20;38.67;;;;;;;17.18;26.06;102358.09;5032842;28;20037;-72
2022/03/22 06:37:51;;;;;;;71.88;37.47;;;;;;;18.49;24.27;102355.13;5032247;28;20079;-69
2022/03/22 06:40:24;;;;;;;80.07;38.53;;;;;;;19.74;22.30;102356.34;5032355;28;20032;-69
2022/03/22 06:42:50;;;;;;;70.50;39.83;;;;;;;20.75;21.41;102359.09;5032569;28;20017;-74
2022/03/22 06:45:15;;;;;;;89.03;40.85;;;;;;;21.74;20.13;102356.94;5032566;28;20501;-73
2022/03/22 06:47:48;;;;;;;75.80;39.88;;;;;;;22.92;18.79;102361.94;5032248;28;20029;-73
2022/03/22 06:50:16;;;;;;;79.25;39.90;;;;;;;23.95;17.22;102368.16;5032575;28;20021;-72
2022/03/22 06:52:47;;;;;;;81.43;40.85;;;;;;;24.79;16.53;102366.22;5015935;28;20120;-73
2022/03/22 06:55:25;;;;;;;83.88;40.40;;;;;;;24.98;15.98;102363.59;5033736;28;20124;-72
2022/03/22 06:57:51;;;;;;;77.13;41.72;;;;;;;23.58;17.13;102373.28;5047238;28;20191;-72
2022/03/22 07:00:27;;;;;;;86.47;44.70;;;;;;;23.35;17.16;102374.41;5035806;28;20037;-73
2022/03/22 07:03:00;;;;;;;80.95;43.90;;;;;;;24.43;16.69;102365.13;5051881;28;20184;-72
2022/03/22 07:05:27;;;;;;;92.57;46.08;;;;;;;25.53;15.19;102367.75;5034162;28;20112;-73
2022/03/22 07:07:54;;;;;;;86.95;44.95;;;;;;;26.65;14.43;102363.78;5034410;28;20029;-73
2022/03/22 07:10:20;;;;;;;93.53;46.22;;;;;;;27.27;12.71;102367.00;5018982;28;20028;-72
2022/03/22 07:12:54;;;;;;;83.43;45.75;;;;;;;27.05;12.92;102378.91;5035188;28;20021;-75
2022/03/22 07:15:39;;;;;;;82.85;44.03;;;;;;;27.42;12.74;102373.22;5053162;28;20382;-78
2022/03/22 07:18:08;;;;;;;82.43;42.85;;;;;;;28.16;12.76;102365.97;5050118;28;20501;-76
2022/03/22 07:20:42;;;;;;;89.28;45.70;;;;;;;28.18;12.42;102366.19;5053605;28;20021;-76
2022/03/22 07:23:07;;;;;;;113.68;47.78;;;;;;;28.20;12.17;102368.59;5036862;28;20040;-75
2022/03/22 07:25:36;;;;;;;89.68;45.22;;;;;;;27.34;13.02;102378.09;5033735;28;20033;-79
2022/03/22 07:28:02;;;;;;;79.10;45.20;;;;;;;27.40;13.48;102370.03;5037744;28;20048;-73
2022/03/22 07:30:29;;;;;;;78.47;44.15;;;;;;;27.71;12.98;102379.59;5034340;28;20029;-75
2022/03/22 07:32:57;;;;;;;75.47;44.83;;;;;;;27.41;13.20;102380.41;5006072;28;20037;-75
2022/03/22 07:35:24;;;;;;;77.32;44.30;;;;;;;27.10;13.44;102374.34;5040198;28;20017;-75
2022/03/22 07:37:50;;;;;;;77.80;44.60;;;;;;;26.73;13.49;102375.69;5029287;28;20520;-70
2022/03/22 07:40:18;;;;;;;79.93;44.35;;;;;;;26.71;14.00;102372.50;5040015;28;20041;-70
2022/03/22 07:42:45;;;;;;;74.97;43.78;;;;;;;26.64;13.88;102379.72;5016735;28;20033;-71
2022/03/22 07:45:11;;;;;;;74.45;43.58;;;;;;;26.59;14.18;102382.72;5051853;28;20037;-72
2022/03/22 07:47:37;;;;;;;82.53;43.45;;;;;;;26.70;14.02;102376.75;5034735;28;20045;-69
2022/03/22 07:55:35;;;;;;;71.88;44.03;;;;;;;25.14;14.48;102376.59;5052550;28;20032;-69
2022/03/22 07:58:05;;;;;;;80.72;45.95;;;;;;;24.46;15.00;102380.78;5031058;28;20041;-69
2022/03/22 08:00:35;;;;;;;76.63;44.30;;;;;;;23.93;15.75;102382.41;5032198;28;20022;-68
2022/03/22 08:03:10;;;;;;;64.47;40.08;;;;;;;23.85;15.30;102378.41;5032361;28;20069;-69
2022/03/22 08:05:38;;;;;;;97.15;42.13;;;;;;;23.49;15.90;102376.38;5031448;28;20092;-68
2022/03/22 08:08:20;;;;;;;69.45;39.30;;;;;;;23.10;16.51;102373.97;5032562;28;20024;-68
2022/03/22 08:10:45;;;;;;;73.78;39.80;;;;;;;23.05;16.08;102386.34;5032722;28;20048;-71
2022/03/22 08:13:12;;;;;;;67.95;37.33;;;;;;;23.11;16.83;102378.47;5030447;28;20053;-70
2022/03/22 08:15:39;;;;;;;74.72;38.67;;;;;;;23.36;16.39;102370.19;5014925;28;20034;-71
2022/03/22 08:18:10;;;;;;;57.92;34.72;;;;;;;23.68;15.88;102377.56;5015669;28;20125;-70
2022/03/22 08:20:36;;;;;;;78.88;38.83;;;;;;;23.93;15.91;102372.88;5015192;28;20038;-70
2022/03/22 08:23:04;;;;;;;65.05;37.80;;;;;;;24.20;15.18;102374.34;4998919;28;20056;-69
2022/03/22 08:25:39;;;;;;;65.80;37.17;;;;;;;24.04;15.40;102367.09;5015362;28;20427;-71
2022/03/22 08:28:07;;;;;;;70.50;39.90;;;;;;;24.05;15.62;102365.78;5015650;28;20029;-72
2022/03/22 08:30:33;;;;;;;82.57;42.85;;;;;;;24.19;15.83;102361.88;5014191;28;20160;-70
2022/03/22 08:33:03;;;;;;;61.05;38.67;;;;;;;23.90;15.44;102359.38;4998391;28;20033;-70
2022/03/22 08:35:30;;;;;;;69.47;38.88;;;;;;;23.76;15.76;102372.81;5014701;28;20455;-71
2022/03/22 08:37:56;;;;;;;68.63;39.97;;;;;;;23.52;16.15;102376.16;5015802;28;20100;-69
2022/03/22 08:40:41;;;;;;;75.20;42.17;;;;;;;23.02;16.95;102363.34;4982093;28;20371;-70
2022/03/22 08:43:09;;;;;;;64.65;40.17;;;;;;;22.90;17.18;102362.44;5020895;28;20036;-66
2022/03/22 08:45:36;;;;;;;60.70;40.17;;;;;;;22.88;17.53;102358.47;5035975;28;20087;-78
2022/03/22 08:48:13;;;;;;;72.05;38.97;;;;;;;22.46;17.51;102365.72;5036467;28;20049;-77
2022/03/22 08:50:42;;;;;;;68.32;36.53;;;;;;;22.37;17.32;102362.97;5031038;28;20363;-75
2022/03/22 08:53:09;;;;;;;59.88;37.00;;;;;;;22.38;17.58;102356.66;5028195;28;20112;-76
2022/03/22 08:55:36;;;;;;;60.50;36.92;;;;;;;22.33;17.98;102351.59;5035849;28;20108;-75
2022/03/22 08:58:09;;;;;;;65.43;38.08;;;;;;;22.31;17.70;102345.50;5018323;28;20037;-75
2022/03/22 09:00:35;;;;;;;56.65;36.47;;;;;;;22.30;17.63;102343.13;5034789;28;20104;-75
2022/03/22 09:03:02;;;;;;;62.78;36.60;;;;;;;22.14;17.09;102356.16;5036248;28;20025;-77
2022/03/22 09:08:25;;;;;;;58.90;34.35;;;;;;;21.77;17.20;102343.50;5029286;28;20033;-77
2022/03/22 09:10:51;;;;;;;60.88;35.42;;;;;;;21.52;17.89;102342.94;5028421;28;20064;-77
2022/03/22 09:13:18;;;;;;;53.95;34.67;;;;;;;21.24;18.54;102335.94;5000477;28;20033;-75
2022/03/22 09:15:47;;;;;;;59.13;34.28;;;;;;;21.17;18.66;102356.66;5034931;28;20033;-80
2022/03/22 09:18:16;;;;;;;54.47;33.33;;;;;;;21.06;18.56;102344.88;5035486;28;20479;-77
2022/03/22 09:20:43;;;;;;;58.67;34.40;;;;;;;20.80;18.37;102338.13;5034011;28;20095;-77
2022/03/22 09:23:09;;;;;;;56.58;33.67;;;;;;;20.68;18.29;102328.44;5032698;28;20095;-76
2022/03/22 09:25:35;;;;;;;54.92;32.60;;;;;;;20.65;19.13;102327.34;5033421;28;20378;-81
2022/03/22 09:28:04;;;;;;;51.53;32.85;;;;;;;20.56;19.00;102333.25;5034963;28;20026;-77
2022/03/22 09:30:30;;;;;;;54.80;35.28;;;;;;;20.46;19.31;102325.97;5034931;28;20025;-81
2022/03/22 09:33:03;;;;;;;56.92;34.50;;;;;;;20.47;18.82;102324.66;5034279;28;20083;-78
2022/03/22 09:35:37;;;;;;;66.95;34.63;;;;;;;20.43;18.92;102315.38;5034964;28;20381;-81
2022/03/22 09:38:02;;;;;;;60.20;33.90;;;;;;;20.50;19.46;102314.97;5035143;28;20049;-79
2022/03/22 09:40:28;;;;;;;53.75;32.83;;;;;;;20.52;19.32;102314.47;5035249;28;20061;-79
2022/03/22 09:42:55;;;;;;;63.85;34.25;;;;;;;20.54;18.95;102317.66;5033816;28;20079;-78
2022/03/22 09:45:39;;;;;;;53.15;31.83;;;;;;;20.40;19.69;102316.38;5003166;28;20116;-81
2022/03/22 09:48:07;;;;;;;56.22;33.47;;;;;;;20.33;18.76;102313.88;5038328;28;20450;-79
2022/03/22 09:53:17;;;;;;;62.35;31.67;;;;;;;20.23;18.73;102316.03;5038478;28;20218;-81
2022/03/22 09:55:57;;;;;;;55.40;31.42;;;;;;;20.19;18.66;102312.53;5017752;28;20076;-82
2022/03/22 09:58:23;;;;;;;54.70;30.95;;;;;;;20.14;19.13;102310.34;5034234;28;20058;-78
2022/03/22 10:00:49;;;;;;;64.25;29.38;;;;;;;20.01;19.51;102301.16;5035355;28;20025;-80
2022/03/22 10:03:21;;;;;;;49.22;28.08;;;;;;;20.05;20.47;102307.53;5035213;28;20036;-81
2022/03/22 10:06:02;;;;;;;47.45;29.52;;;;;;;19.97;19.22;102302.66;5037233;28;20026;-80
2022/03/22 10:08:28;;;;;;;52.22;29.63;;;;;;;19.78;19.73;102302.78;5035477;28;20105;-76
2022/03/22 10:11:14;;;;;;;52.35;28.63;;;;;;;19.74;19.82;102299.28;5035054;28;20071;-77
2022/03/22 10:13:55;;;;;;;45.55;25.33;;;;;;;19.51;18.89;102273.31;5034936;28;20146;-76
2022/03/22 10:16:23;;;;;;;42.50;25.83;;;;;;;19.38;19.01;102250.44;4999743;28;20127;-74
2022/03/22 10:18:51;;;;;;;51.22;27.83;;;;;;;19.68;19.84;102291.81;5031364;28;20038;-79
2022/03/22 10:21:16;;;;;;;47.40;27.40;;;;;;;19.70;19.57;102292.91;5024055;28;20057;-79
2022/03/22 10:23:56;;;;;;;42.50;26.25;;;;;;;19.75;20.19;102297.19;5019382;28;20036;-82
2022/03/22 10:26:36;;;;;;;44.15;24.45;;;;;;;19.79;20.13;102294.91;5038654;28;20036;-81
2022/03/22 10:29:01;;;;;;;46.20;27.15;;;;;;;19.68;20.46;102291.81;5052657;28;20109;-79
2022/03/22 10:31:38;;;;;;;43.38;26.80;;;;;;;19.68;19.27;102297.59;5053156;28;20010;-79
2022/03/22 10:34:04;;;;;;;49.60;28.10;;;;;;;19.54;19.28;102293.34;5056223;28;20075;-80
2022/03/22 10:36:35;;;;;;;44.55;26.75;;;;;;;19.44;19.51;102285.22;5051619;28;20044;-82
2022/03/22 10:39:07;;;;;;;45.75;23.92;;;;;;;19.26;19.48;102286.94;5020647;28;20041;-78
2022/03/22 10:41:44;;;;;;;48.75;26.02;;;;;;;19.01;19.69;102263.50;5016989;28;20100;-80
2022/03/22 10:44:20;;;;;;;47.92;24.38;;;;;;;19.14;18.62;102284.31;5015374;28;20132;-79
2022/03/22 10:46:48;;;;;;;46.22;23.77;;;;;;;19.01;18.49;102277.94;5013918;28;20148;-80
2022/03/22 10:49:15;;;;;;;41.65;23.55;;;;;;;18.88;18.68;102276.09;4997729;28;20026;-84
2022/03/22 10:51:47;;;;;;;72.25;28.15;;;;;;;18.78;18.52;102277.44;5016756;28;20022;-81
2022/03/22 10:54:22;;;;;;;73.10;29.02;;;;;;;18.62;19.16;102274.94;5034864;28;20033;-76
2022/03/22 10:56:56;;;;;;;41.03;22.80;;;;;;;18.48;19.42;102267.75;5039292;28;20063;-74
2022/03/22 10:59:24;;;;;;;34.30;18.73;;;;;;;18.48;18.80;102266.94;5035805;28;20028;-74
2022/03/22 11:01:52;;;;;;;40.97;20.65;;;;;;;18.40;18.14;102277.25;5053415;28;20117;-76
2022/03/22 11:04:19;;;;;;;43.55;21.58;;;;;;;18.18;19.18;102239.97;5035684;28;20064;-75
2022/03/22 11:06:47;;;;;;;48.20;21.08;;;;;;;18.34;18.90;102267.66;5054540;28;20052;-80
2022/03/22 11:09:14;;;;;;;35.80;17.70;;;;;;;18.23;18.77;102258.69;5020480;28;20033;-78
2022/03/22 11:11:41;;;;;;;45.60;19.45;;;;;;;18.24;19.36;102258.22;5035983;28;20033;-80
2022/03/22 11:14:08;;;;;;;30.48;18.08;;;;;;;18.21;18.93;102253.41;5003811;28;20241;-80
2022/03/22 11:16:41;;;;;;;39.60;20.00;;;;;;;18.21;21.01;102247.63;5036219;28;20078;-80
2022/03/22 11:19:07;;;;;;;33.30;19.98;;;;;;;18.18;20.50;102247.81;5037768;28;20126;-82
2022/03/22 11:21:33;;;;;;;36.20;19.23;;;;;;;18.23;20.19;102247.16;5056824;28;20032;-79
2022/03/22 11:24:11;;;;;;;35.72;18.17;;;;;;;18.23;20.13;102244.28;5057914;28;20202;-81
2022/03/22 11:26:51;;;;;;;24.92;16.38;;;;;;;18.15;19.53;102235.16;5039120;28;20048;-76
2022/03/22 11:29:22;;;;;;;27.75;16.38;;;;;;;18.21;19.82;102233.22;5039397;28;20033;-77
2022/03/22 11:34:35;;;;;;;27.30;15.68;;;;;;;18.19;18.46;102230.03;5038506;28;20036;-77
2022/03/22 11:37:02;;;;;;;50.53;18.02;;;;;;;18.08;18.18;102229.72;5035228;28;20418;-78
2022/03/22 11:42:16;;;;;;;28.67;15.20;;;;;;;18.09;19.02;102216.91;5055698;28;20168;-82
2022/03/22 11:44:53;;;;;;;35.05;16.05;;;;;;;18.03;18.49;102225.41;5033732;28;20450;-81
2022/03/22 11:47:22;;;;;;;37.90;17.67;;;;;;;17.94;18.73;102218.88;5043007;28;20450;-82
2022/03/22 11:49:47;;;;;;;31.63;15.57;;;;;;;17.91;18.01;102226.41;5046185;28;20048;-79
2022/03/22 11:52:24;;;;;;;29.77;15.48;;;;;;;17.77;17.81;102211.84;5046070;28;20508;-73
2022/03/22 11:54:58;;;;;;;38.00;17.48;;;;;;;17.71;19.22;102213.78;5044323;28;20088;-74
2022/03/22 11:57:23;;;;;;;36.80;15.93;;;;;;;17.75;18.16;102220.19;5046178;28;20076;-75